Time;durP1;ratioP1;P1;durP2;ratioP2;P2;SDS_P1;SDS_P2;PMS_P1;PMS_P2;Temp;Humidity;BMP_temperature;BMP_pressure;BME280_temperature;BME280_humidity;BME280_pressure;Samples;Min_cycle;Max_cycle;Signal;HPM_P1;HPM_P2
2021/12/15 00:01:31;;;;;;;17.20;5.07;;;;;;;-145.69;100.00;73352.94;5076147;28;20199;-80
2021/12/15 00:03:58;;;;;;;15.33;5.00;;;;;;;-145.69;100.00;73352.94;5076080;28;20202;-79
2021/12/15 00:06:25;;;;;;;11.17;4.40;;;;;;;-145.69;100.00;73354.94;5075960;28;20195;-79
2021/12/15 00:08:54;;;;;;;9.70;4.00;;;;;;;-145.69;100.00;73348.97;5076267;28;20298;-79
2021/12/15 00:11:24;;;;;;;8.50;3.57;;;;;;;-145.69;100.00;73356.91;5075869;28;20277;-80
2021/12/15 00:13:52;;;;;;;11.67;4.33;;;;;;;-145.69;100.00;73356.91;5075995;28;20238;-79
2021/12/15 00:16:19;;;;;;;13.13;4.43;;;;;;;-145.69;100.00;73358.91;5075771;28;20202;-79
2021/12/15 00:18:47;;;;;;;8.17;3.63;;;;;;;-145.69;100.00;73368.88;5075865;28;20553;-80
2021/12/15 00:21:16;;;;;;;10.07;4.10;;;;;;;-145.69;100.00;73374.84;5076068;28;20206;-80
2021/12/15 00:23:44;;;;;;;9.80;4.37;;;;;;;-145.69;100.00;73372.84;5075602;28;20221;-80
2021/12/15 00:26:11;;;;;;;11.47;4.37;;;;;;;-145.69;100.00;73378.81;5075873;28;20203;-81
2021/12/15 00:28:38;;;;;;;16.07;4.90;;;;;;;-145.69;100.00;73380.81;5075686;28;20198;-81
2021/12/15 00:31:05;;;;;;;15.30;5.67;;;;;;;-145.69;100.00;73386.78;5075758;28;20289;-80
2021/12/15 00:33:32;;;;;;;12.60;5.17;;;;;;;-145.69;100.00;73388.78;5075687;28;20230;-80
2021/12/15 00:36:00;;;;;;;10.13;4.47;;;;;;;-145.69;100.00;73396.72;5075465;28;20206;-80
2021/12/15 00:38:29;;;;;;;11.20;4.33;;;;;;;-145.69;100.00;73394.75;5075320;28;20191;-81
2021/12/15 00:40:55;;;;;;;8.70;4.43;;;;;;;-145.69;100.00;73394.75;5075591;28;20206;-80
2021/12/15 00:43:22;;;;;;;13.07;5.13;;;;;;;-145.69;100.00;73392.75;5075448;28;20233;-80
2021/12/15 00:45:49;;;;;;;10.53;4.43;;;;;;;-145.69;100.00;73392.75;5075044;28;20210;-81
2021/12/15 00:48:16;;;;;;;9.40;4.37;;;;;;;-145.69;100.00;73400.72;5074921;28;20302;-80
2021/12/15 00:50:46;;;;;;;12.90;5.00;;;;;;;-145.69;100.00;73404.69;5075455;28;20202;-80
2021/12/15 00:53:16;;;;;;;10.73;5.03;;;;;;;-145.69;100.00;73396.72;5075213;28;20222;-80
2021/12/15 00:55:44;;;;;;;9.43;4.60;;;;;;;-145.69;100.00;73398.72;5075150;28;20233;-80
2021/12/15 00:58:12;;;;;;;9.93;4.93;;;;;;;-145.69;100.00;73398.72;5075134;28;20202;-80
2021/12/15 01:00:41;;;;;;;11.30;4.90;;;;;;;-145.69;100.00;73400.72;5075171;28;20199;-80
2021/12/15 01:03:08;;;;;;;11.70;4.70;;;;;;;-145.69;100.00;73392.75;5075015;28;20723;-80
2021/12/15 01:05:40;;;;;;;11.27;4.93;;;;;;;-145.69;100.00;73386.78;5074804;28;20297;-80
2021/12/15 01:08:11;;;;;;;12.32;6.15;;;;;;;-145.69;100.00;73384.78;5073904;28;20801;-80
2021/12/15 01:10:56;;;;;;;11.43;5.23;;;;;;;-145.69;100.00;73392.75;5074979;28;20203;-80
2021/12/15 01:21:37;;;;;;;10.20;4.77;;;;;;;-145.69;100.00;73388.78;5054793;28;20386;-80
2021/12/15 01:24:05;;;;;;;10.93;4.97;;;;;;;-145.69;100.00;73392.75;5057128;28;20199;-80
2021/12/15 01:26:33;;;;;;;9.70;4.43;;;;;;;-145.69;100.00;73390.75;5054296;28;20234;-79
2021/12/15 01:28:59;;;;;;;9.20;4.50;;;;;;;-145.69;100.00;73388.78;5065627;28;20206;-79
2021/12/15 01:31:26;;;;;;;12.27;4.73;;;;;;;-145.69;100.00;73400.72;5074456;28;20268;-80
2021/12/15 01:33:53;;;;;;;12.67;4.87;;;;;;;-145.69;100.00;73390.75;5074377;28;20283;-80
2021/12/15 01:36:19;;;;;;;10.70;4.77;;;;;;;-145.69;100.00;73400.72;5074487;28;20202;-80
2021/12/15 01:38:47;;;;;;;13.30;5.50;;;;;;;-145.69;100.00;73396.72;5074832;28;20248;-79
2021/12/15 01:41:20;;;;;;;11.50;4.73;;;;;;;-145.69;100.00;73396.72;5074355;28;20199;-80
2021/12/15 01:46:52;;;;;;;12.67;5.13;;;;;;;-145.69;100.00;73402.72;5074299;28;20210;-80
2021/12/15 01:46:55;;;;;;;14.43;5.73;;;;;;;-145.69;100.00;73408.69;5074166;28;20194;-80
2021/12/15 01:49:29;;;;;;;10.57;4.93;;;;;;;-145.69;100.00;73404.69;5074230;28;20207;-80
2021/12/15 01:51:58;;;;;;;9.87;4.70;;;;;;;-145.69;100.00;73406.69;5073981;28;20602;-80
2021/12/15 01:54:27;;;;;;;11.57;5.03;;;;;;;-145.69;100.00;73410.66;5073540;28;20246;-80
2021/12/15 01:56:54;;;;;;;13.70;5.70;;;;;;;-145.69;100.00;73410.66;5074048;28;20215;-80
2021/12/15 01:59:25;;;;;;;11.63;5.80;;;;;;;-145.69;100.00;73412.66;5073723;28;20550;-81
2021/12/15 02:01:52;;;;;;;11.50;5.33;;;;;;;-145.69;100.00;73404.69;5073723;28;20195;-81
2021/12/15 02:04:20;;;;;;;11.80;5.17;;;;;;;-145.69;100.00;73408.69;5073949;28;20202;-81
2021/12/15 02:06:48;;;;;;;14.93;6.03;;;;;;;-145.69;100.00;73404.69;5073700;28;20203;-81
2021/12/15 02:09:26;;;;;;;13.63;5.63;;;;;;;-145.69;100.00;73406.69;5073785;28;20194;-80
2021/12/15 02:11:53;;;;;;;13.10;5.17;;;;;;;-145.69;100.00;73408.69;5073828;28;20256;-81
2021/12/15 02:14:19;;;;;;;16.70;5.63;;;;;;;-145.69;100.00;73406.69;5073591;28;20712;-81
2021/12/15 02:16:47;;;;;;;15.57;5.80;;;;;;;-145.69;100.00;73406.69;5073342;28;20191;-80
2021/12/15 02:19:14;;;;;;;11.73;5.53;;;;;;;-145.69;100.00;73410.66;5073508;28;20205;-81
2021/12/15 02:21:42;;;;;;;12.00;5.17;;;;;;;-145.69;100.00;73414.66;5073376;28;20213;-81
2021/12/15 02:24:08;;;;;;;14.07;5.13;;;;;;;-145.69;100.00;73402.72;5073710;28;20205;-80
2021/12/15 02:26:44;;;;;;;12.23;5.13;;;;;;;-145.69;100.00;73402.72;5073549;28;20293;-80
2021/12/15 02:29:15;;;;;;;14.70;5.17;;;;;;;-145.69;100.00;73410.66;5073473;28;20657;-80
2021/12/15 02:31:54;;;;;;;12.40;5.27;;;;;;;-145.69;100.00;73408.69;5073086;28;20245;-80
2021/12/15 02:34:44;;;;;;;14.43;5.70;;;;;;;-145.69;100.00;73406.69;5073533;28;20230;-80
2021/12/15 02:37:17;;;;;;;11.73;5.13;;;;;;;-145.69;100.00;73402.72;5073418;28;20240;-80
2021/12/15 02:39:46;;;;;;;10.27;4.70;;;;;;;-145.69;100.00;73402.72;5073337;28;20199;-80
2021/12/15 02:42:14;;;;;;;12.93;5.40;;;;;;;-145.69;100.00;73404.69;5072878;28;20249;-80
2021/12/15 02:44:43;;;;;;;13.03;5.27;;;;;;;-145.69;100.00;73396.72;5073326;28;20605;-80
2021/12/15 02:47:11;;;;;;;14.87;5.43;;;;;;;-145.69;100.00;73400.72;5073188;28;20203;-81
2021/12/15 02:49:38;;;;;;;13.33;5.40;;;;;;;-145.69;100.00;73396.72;5073231;28;20207;-80
2021/12/15 02:52:06;;;;;;;11.87;5.07;;;;;;;-145.69;100.00;73392.75;5073122;28;20650;-80
2021/12/15 02:54:35;;;;;;;13.87;5.20;;;;;;;-145.69;100.00;73404.69;5072901;28;20241;-80
2021/12/15 02:57:06;;;;;;;13.03;5.53;;;;;;;-145.69;100.00;73408.69;5073194;28;20194;-80
2021/12/15 02:59:43;;;;;;;14.97;5.43;;;;;;;-145.69;100.00;73400.72;5073407;28;20293;-80
2021/12/15 03:02:19;;;;;;;12.80;4.83;;;;;;;-145.69;100.00;73404.69;5073425;28;20202;-80
2021/12/15 03:04:51;;;;;;;15.10;5.87;;;;;;;-145.69;100.00;73410.66;5073328;28;20203;-80
2021/12/15 03:07:28;;;;;;;11.17;4.53;;;;;;;-145.69;100.00;73406.69;5073483;28;20232;-80
2021/12/15 03:15:34;;;;;;;11.77;4.67;;;;;;;-145.69;100.00;73406.69;5073265;28;20206;-80
2021/12/15 03:18:05;;;;;;;15.07;4.33;;;;;;;-145.69;100.00;73424.59;5070824;28;20200;-80
2021/12/15 03:20:34;;;;;;;10.70;4.00;;;;;;;-145.69;100.00;73424.59;5053037;28;20218;-80
2021/12/15 03:23:01;;;;;;;7.37;3.67;;;;;;;-145.69;100.00;73416.66;5053197;28;20202;-80
2021/12/15 03:25:31;;;;;;;6.43;3.00;;;;;;;-145.69;100.00;73412.66;5053147;28;20211;-81
2021/12/15 03:33:38;;;;;;;7.70;3.57;;;;;;;-145.69;100.00;73440.53;5072940;28;20588;-79
2021/12/15 03:36:12;;;;;;;6.47;2.60;;;;;;;-145.69;100.00;73436.56;5073062;28;20195;-80
2021/12/15 03:38:40;;;;;;;6.30;2.70;;;;;;;-145.69;100.00;73440.53;5072749;28;20252;-79
2021/12/15 03:41:11;;;;;;;6.20;3.83;;;;;;;-145.69;100.00;73432.56;5071765;28;20438;-79
2021/12/15 03:43:38;;;;;;;4.50;2.70;;;;;;;-145.69;100.00;73434.56;5072685;28;20570;-79
2021/12/15 03:46:09;;;;;;;5.47;2.70;;;;;;;-145.69;100.00;73450.50;5072235;28;20654;-79
2021/12/15 03:48:42;;;;;;;4.07;2.27;;;;;;;-145.69;100.00;73436.56;5072644;28;20218;-79
2021/12/15 03:51:09;;;;;;;4.97;2.60;;;;;;;-145.69;100.00;73440.53;5072703;28;20305;-79
2021/12/15 03:53:36;;;;;;;5.53;2.20;;;;;;;-145.69;100.00;73468.41;5072344;28;20298;-80
2021/12/15 03:56:03;;;;;;;3.63;2.23;;;;;;;-145.69;100.00;73476.38;5072555;28;20582;-79
2021/12/15 03:58:31;;;;;;;3.77;2.10;;;;;;;-145.69;100.00;73476.38;5072269;28;20207;-80
2021/12/15 04:01:03;;;;;;;3.67;2.00;;;;;;;-145.69;100.00;73486.31;5072146;28;20245;-80
2021/12/15 04:03:34;;;;;;;4.43;2.20;;;;;;;-145.69;100.00;73498.28;5072307;28;20294;-80
2021/12/15 04:06:04;;;;;;;4.80;2.20;;;;;;;-145.69;100.00;73500.25;5072598;28;20562;-80
2021/12/15 04:08:32;;;;;;;4.70;2.10;;;;;;;-145.69;100.00;73506.22;5072454;28;20199;-80
2021/12/15 04:10:59;;;;;;;3.50;1.80;;;;;;;-145.69;100.00;73508.22;5072376;28;20203;-80
2021/12/15 04:13:26;;;;;;;3.20;1.83;;;;;;;-145.69;100.00;73516.19;5072341;28;20206;-80
2021/12/15 04:15:57;;;;;;;3.00;1.73;;;;;;;-145.69;100.00;73514.19;5072056;28;20199;-80
2021/12/15 04:18:25;;;;;;;2.33;1.70;;;;;;;-145.69;100.00;73516.19;5072401;28;20206;-80
2021/12/15 04:20:54;;;;;;;4.07;2.42;;;;;;;-145.69;100.00;73512.22;5072524;28;20456;-80
2021/12/15 04:23:21;;;;;;;2.93;1.70;;;;;;;-145.69;100.00;73508.22;5075908;28;20645;-80
2021/12/15 04:25:51;;;;;;;3.17;1.90;;;;;;;-145.69;100.00;73500.25;5075799;28;20199;-80
2021/12/15 04:28:19;;;;;;;3.50;2.13;;;;;;;-145.69;100.00;73498.28;5075695;28;20225;-80
2021/12/15 04:30:49;;;;;;;4.73;2.37;;;;;;;-145.69;100.00;73496.28;5075844;28;20209;-80
2021/12/15 04:33:23;;;;;;;4.07;2.27;;;;;;;-145.69;100.00;73504.25;5075851;28;20202;-80
2021/12/15 04:35:52;;;;;;;6.30;2.10;;;;;;;-145.69;100.00;73504.25;5075691;28;20229;-80
2021/12/15 04:38:19;;;;;;;4.33;1.97;;;;;;;-145.69;100.00;73516.19;5075618;28;20195;-80
2021/12/15 04:40:45;;;;;;;3.77;2.23;;;;;;;-145.69;100.00;73508.22;5075478;28;20210;-80
2021/12/15 04:43:12;;;;;;;3.20;1.93;;;;;;;-145.69;100.00;73504.25;5075596;28;20199;-81
2021/12/15 04:45:39;;;;;;;6.63;2.70;;;;;;;-145.69;100.00;73500.25;5075541;28;20206;-81
2021/12/15 04:48:09;;;;;;;7.53;3.30;;;;;;;-145.69;100.00;73504.25;5075280;28;20252;-81
2021/12/15 04:50:38;;;;;;;5.80;2.40;;;;;;;-145.69;100.00;73502.25;5075138;28;20195;-81
2021/12/15 04:53:07;;;;;;;8.33;2.47;;;;;;;-145.69;100.00;73502.25;5075344;28;20202;-81
2021/12/15 04:55:36;;;;;;;6.40;2.70;;;;;;;-145.69;100.00;73504.25;5075115;28;20727;-80
2021/12/15 04:58:05;;;;;;;8.03;3.10;;;;;;;-145.69;100.00;73508.22;5075256;28;20728;-80
2021/12/15 05:00:34;;;;;;;8.80;3.33;;;;;;;-145.69;100.00;73516.19;5075437;28;20661;-80
2021/12/15 05:03:03;;;;;;;9.73;3.03;;;;;;;-145.69;100.00;73508.22;5075228;28;20211;-80
2021/12/15 05:05:32;;;;;;;12.20;4.20;;;;;;;-145.69;100.00;73518.19;5075052;28;20554;-81
2021/12/15 05:08:01;;;;;;;11.07;4.30;;;;;;;-145.69;100.00;73510.22;5074947;28;20199;-80
2021/12/15 05:10:28;;;;;;;9.00;3.80;;;;;;;-145.69;100.00;73516.19;5075294;28;20203;-80
2021/12/15 05:12:55;;;;;;;12.93;4.07;;;;;;;-145.69;100.00;73508.22;5066094;28;20206;-80
2021/12/15 05:15:21;;;;;;;11.87;3.83;;;;;;;-145.69;100.00;73512.22;5054877;28;20230;-80
2021/12/15 05:17:48;;;;;;;9.17;3.40;;;;;;;-145.69;100.00;73512.22;5054988;28;20203;-80
2021/12/15 05:20:15;;;;;;;9.97;3.10;;;;;;;-145.69;100.00;73510.22;5055065;28;20203;-81
2021/12/15 05:22:41;;;;;;;11.20;3.83;;;;;;;-145.69;100.00;73526.16;5070431;28;20688;-80
2021/12/15 05:25:11;;;;;;;10.90;3.30;;;;;;;-145.69;100.00;73524.16;5075072;28;20222;-81
2021/12/15 05:27:39;;;;;;;9.27;3.90;;;;;;;-145.69;100.00;73524.16;5074938;28;20198;-80
2021/12/15 05:30:08;;;;;;;11.33;3.90;;;;;;;-145.69;100.00;73522.16;5074745;28;20202;-80
2021/12/15 05:32:35;;;;;;;10.93;4.00;;;;;;;-145.69;100.00;73530.13;5074135;28;20202;-81
2021/12/15 05:35:01;;;;;;;9.73;3.73;;;;;;;-145.69;100.00;73532.13;5074432;28;20230;-80
2021/12/15 05:37:29;;;;;;;9.90;3.67;;;;;;;-145.69;100.00;73532.13;5074622;28;20203;-80
2021/12/15 05:39:59;;;;;;;7.93;3.37;;;;;;;-145.69;100.00;73534.09;5074246;28;20206;-81
2021/12/15 05:42:27;;;;;;;7.93;3.27;;;;;;;-145.69;100.00;73552.03;5074447;28;20195;-81
2021/12/15 05:44:57;;;;;;;10.07;3.67;;;;;;;-145.69;100.00;73563.97;5074555;28;20198;-81
2021/12/15 05:47:26;;;;;;;7.07;3.53;;;;;;;-145.69;100.00;73556.00;5074191;28;20318;-81
2021/12/15 05:49:55;;;;;;;8.83;3.90;;;;;;;-145.69;100.00;73552.03;5074250;28;20233;-81
2021/12/15 05:52:26;;;;;;;8.73;3.07;;;;;;;-145.69;100.00;73552.03;5074367;28;20198;-82
2021/12/15 05:54:52;;;;;;;8.70;3.30;;;;;;;-145.69;100.00;73561.97;5073897;28;20321;-81
2021/12/15 05:57:19;;;;;;;7.57;3.53;;;;;;;-145.69;100.00;73560.00;5074311;28;20206;-81
2021/12/15 05:59:47;;;;;;;10.13;3.67;;;;;;;-145.69;100.00;73567.94;5074110;28;20206;-81
2021/12/15 06:02:13;;;;;;;13.90;4.27;;;;;;;-145.69;100.00;73567.94;5073994;28;20203;-81
2021/12/15 06:04:40;;;;;;;13.33;4.10;;;;;;;-145.69;100.00;73573.94;5074149;28;20206;-81
2021/12/15 06:07:07;;;;;;;9.67;3.63;;;;;;;-145.69;100.00;73567.94;5073974;28;20195;-81
2021/12/15 06:09:34;;;;;;;15.07;4.53;;;;;;;-145.69;100.00;73565.97;5074092;28;20202;-81
2021/12/15 06:12:01;;;;;;;13.40;4.50;;;;;;;-145.69;100.00;73567.94;5073587;28;20195;-81
2021/12/15 06:14:28;;;;;;;10.40;4.23;;;;;;;-145.69;100.00;73567.94;5073860;28;20233;-81
2021/12/15 06:17:00;;;;;;;12.77;4.10;;;;;;;-145.69;100.00;73567.94;5073648;28;20210;-81
2021/12/15 06:19:26;;;;;;;11.77;4.07;;;;;;;-145.69;100.00;73567.94;5073993;28;20604;-81
2021/12/15 06:21:53;;;;;;;13.70;4.93;;;;;;;-145.69;100.00;73571.94;5073796;28;20206;-81
2021/12/15 06:24:20;;;;;;;11.00;4.60;;;;;;;-145.69;100.00;73563.97;5073725;28;20202;-81
2021/12/15 06:26:46;;;;;;;14.03;4.57;;;;;;;-145.69;100.00;73571.94;5073575;28;20203;-81
2021/12/15 06:29:13;;;;;;;14.30;5.53;;;;;;;-145.69;100.00;73563.97;5073099;28;20553;-80
2021/12/15 06:31:40;;;;;;;9.53;4.37;;;;;;;-145.69;100.00;73563.97;5073732;28;20203;-80
2021/12/15 06:34:09;;;;;;;12.60;4.17;;;;;;;-145.69;100.00;73563.97;5073204;28;20668;-80
2021/12/15 06:36:37;;;;;;;13.63;5.23;;;;;;;-145.69;100.00;73561.97;5073465;28;20205;-80
2021/12/15 06:39:06;;;;;;;16.17;5.50;;;;;;;-145.69;100.00;73565.97;5073462;28;20199;-80
2021/12/15 06:41:32;;;;;;;17.77;5.67;;;;;;;-145.69;100.00;73567.94;5073304;28;20199;-80
2021/12/15 06:43:59;;;;;;;17.97;5.70;;;;;;;-145.69;100.00;73577.91;5072738;28;20554;-80
2021/12/15 06:46:52;;;;;;;18.53;5.80;;;;;;;-145.69;100.00;73583.88;5072752;28;20199;-80
2021/12/15 07:00:14;;;;;;;13.80;4.87;;;;;;;-145.69;100.00;73583.88;5072655;28;20194;-80
2021/12/15 07:02:42;;;;;;;12.27;5.53;;;;;;;-145.69;100.00;73589.84;5072721;28;20225;-80
2021/12/15 07:05:11;;;;;;;10.33;4.90;;;;;;;-145.69;100.00;73591.84;5072944;28;20561;-80
2021/12/15 07:07:39;;;;;;;11.83;5.00;;;;;;;-145.69;100.00;73599.81;5072977;28;20289;-80
2021/12/15 07:10:08;;;;;;;14.07;5.30;;;;;;;-145.69;100.00;73603.78;5072966;28;20206;-80
2021/12/15 07:12:35;;;;;;;13.50;4.73;;;;;;;-145.69;100.00;73603.78;5072776;28;20210;-80
2021/12/15 07:15:01;;;;;;;13.20;5.20;;;;;;;-145.69;100.00;73599.81;5056327;28;20690;-80
2021/12/15 07:17:28;;;;;;;14.47;5.33;;;;;;;-145.69;100.00;73603.78;5052979;28;20200;-80
2021/12/15 07:20:17;;;;;;;18.13;5.83;;;;;;;-145.69;100.00;73607.78;5071481;28;20285;-79
2021/12/15 07:22:45;;;;;;;14.53;5.37;;;;;;;-145.69;100.00;73607.78;5072857;28;20198;-80
2021/12/15 07:25:14;;;;;;;14.27;5.70;;;;;;;-145.69;100.00;73605.78;5072731;28;20634;-79
2021/12/15 07:27:41;;;;;;;18.53;5.73;;;;;;;-145.69;100.00;73607.78;5072738;28;20260;-79
2021/12/15 07:30:09;;;;;;;16.27;5.80;;;;;;;-145.69;100.00;73607.78;5072819;28;20195;-80
2021/12/15 07:32:36;;;;;;;14.40;5.93;;;;;;;-145.69;100.00;73615.72;5072985;28;20206;-80
2021/12/15 07:35:04;;;;;;;16.63;5.73;;;;;;;-145.69;100.00;73627.69;5072279;28;20221;-80
2021/12/15 07:37:32;;;;;;;14.20;5.40;;;;;;;-145.69;100.00;73627.69;5072685;28;20207;-80
2021/12/15 07:40:00;;;;;;;14.63;5.63;;;;;;;-145.69;100.00;73637.63;5073002;28;20649;-80
2021/12/15 07:42:35;;;;;;;16.47;5.40;;;;;;;-145.69;100.00;73639.63;5072550;28;20198;-80
2021/12/15 07:45:02;;;;;;;17.43;5.83;;;;;;;-145.69;100.00;73643.59;5072608;28;20661;-80
2021/12/15 07:47:29;;;;;;;13.03;5.30;;;;;;;-145.69;100.00;73641.63;5072705;28;20199;-80
2021/12/15 07:50:00;;;;;;;17.48;7.40;;;;;;;-145.69;100.00;73631.66;5071916;28;20933;-80
2021/12/15 07:52:27;;;;;;;16.03;6.17;;;;;;;-145.69;100.00;73635.66;5072112;28;20195;-80
2021/12/15 07:54:54;;;;;;;16.40;6.20;;;;;;;-145.69;100.00;73635.66;5072239;28;20244;-80
2021/12/15 07:57:27;;;;;;;13.60;6.20;;;;;;;-145.69;100.00;73629.66;5076117;28;20199;-80
2021/12/15 07:59:56;;;;;;;19.13;7.57;;;;;;;-145.69;100.00;73633.66;5076708;28;20221;-80
2021/12/15 08:02:23;;;;;;;17.67;6.60;;;;;;;-145.69;100.00;73631.66;5076302;28;20281;-80
2021/12/15 08:04:49;;;;;;;20.83;6.60;;;;;;;-145.69;100.00;73617.72;5076177;28;20209;-80
2021/12/15 08:07:17;;;;;;;18.17;7.27;;;;;;;-145.69;100.00;73625.69;5076066;28;20218;-80
2021/12/15 08:09:45;;;;;;;16.70;6.70;;;;;;;-145.69;100.00;73635.66;5075982;28;20195;-80
2021/12/15 08:12:12;;;;;;;21.50;6.03;;;;;;;-145.69;100.00;73631.66;5076207;28;20199;-80
2021/12/15 08:14:40;;;;;;;15.40;5.53;;;;;;;-145.69;100.00;73629.66;5075988;28;20283;-80
2021/12/15 08:17:06;;;;;;;18.20;6.10;;;;;;;-145.69;100.00;73635.66;5076210;28;20199;-80
2021/12/15 08:19:33;;;;;;;15.87;6.47;;;;;;;-145.69;100.00;73623.69;5076090;28;20210;-81
2021/12/15 08:22:00;;;;;;;23.50;8.03;;;;;;;-145.69;100.00;73623.69;5075906;28;20207;-81
2021/12/15 08:24:26;;;;;;;26.27;8.37;;;;;;;-145.69;100.00;73619.72;5076007;28;20194;-81
2021/12/15 08:26:53;;;;;;;18.10;6.83;;;;;;;-145.69;100.00;73627.69;5075635;28;20205;-80
2021/12/15 08:29:19;;;;;;;17.20;5.90;;;;;;;-145.69;100.00;73619.72;5075906;28;20198;-80
2021/12/15 08:31:48;;;;;;;19.90;6.83;;;;;;;-145.69;100.00;73619.72;5075742;28;20199;-80
2021/12/15 08:34:14;;;;;;;17.03;6.57;;;;;;;-145.69;100.00;73613.75;5075979;28;20244;-80
2021/12/15 08:36:41;;;;;;;16.07;6.37;;;;;;;-145.69;100.00;73607.78;5076295;28;20230;-80
2021/12/15 08:39:09;;;;;;;18.50;7.17;;;;;;;-145.69;100.00;73601.81;5075845;28;20221;-81
2021/12/15 08:41:36;;;;;;;19.27;6.17;;;;;;;-145.69;100.00;73595.81;5075373;28;20195;-81
2021/12/15 08:44:06;;;;;;;23.83;6.77;;;;;;;-145.69;100.00;73603.78;5075511;28;20237;-80
2021/12/15 08:46:38;;;;;;;16.90;6.80;;;;;;;-145.69;100.00;73595.81;5075339;28;20261;-80
2021/12/15 08:49:09;;;;;;;18.03;7.90;;;;;;;-145.69;100.00;73603.78;5075374;28;20202;-80
2021/12/15 08:51:36;;;;;;;14.43;6.03;;;;;;;-145.69;100.00;73597.81;5075435;28;20238;-80
2021/12/15 08:54:08;;;;;;;18.27;6.73;;;;;;;-145.69;100.00;73615.72;5075246;28;20277;-80
2021/12/15 08:56:36;;;;;;;15.60;7.07;;;;;;;-145.69;100.00;73599.81;5075209;28;20230;-80
2021/12/15 08:59:05;;;;;;;14.50;6.13;;;;;;;-145.69;100.00;73619.72;5074975;28;20202;-80
2021/12/15 09:01:32;;;;;;;34.77;7.00;;;;;;;-145.69;100.00;73625.69;5075141;28;20206;-80
2021/12/15 09:03:59;;;;;;;14.47;6.60;;;;;;;-145.69;100.00;73613.75;5075265;28;20202;-80
2021/12/15 09:06:30;;;;;;;22.80;7.17;;;;;;;-145.69;100.00;73641.63;5075073;28;20448;-80
2021/12/15 09:08:57;;;;;;;21.90;7.20;;;;;;;-145.69;100.00;73625.69;5074483;28;20202;-79
2021/12/15 09:11:27;;;;;;;17.97;6.60;;;;;;;-145.69;100.00;73631.66;5075186;28;20557;-78
2021/12/15 09:13:56;;;;;;;20.13;6.83;;;;;;;-145.69;100.00;73611.75;5075025;28;20658;-80
2021/12/15 09:16:25;;;;;;;15.57;6.33;;;;;;;-145.69;100.00;73627.69;5074645;28;20229;-80
2021/12/15 09:18:53;;;;;;;21.47;6.20;;;;;;;-145.69;100.00;73637.63;5075062;28;20624;-79
2021/12/15 09:21:22;;;;;;;13.87;6.20;;;;;;;-145.69;100.00;73635.66;5075104;28;20205;-78
2021/12/15 09:23:50;;;;;;;14.40;6.07;;;;;;;-145.69;100.00;73635.66;5065624;28;20203;-79
2021/12/15 09:26:20;;;;;;;14.63;5.53;;;;;;;-145.69;100.00;73627.69;5054595;28;20566;-79
2021/12/15 09:28:47;;;;;;;8.53;4.33;;;;;;;-145.69;100.00;73631.66;5054809;28;20218;-79
2021/12/15 09:31:14;;;;;;;10.23;4.37;;;;;;;-145.69;100.00;73631.66;5054802;28;20636;-79
2021/12/15 09:33:41;;;;;;;6.70;3.37;;;;;;;-145.69;100.00;73645.59;5070444;28;20252;-79
2021/12/15 09:36:10;;;;;;;8.17;3.97;;;;;;;-145.69;100.00;73669.50;5074541;28;20227;-79
2021/12/15 09:38:37;;;;;;;7.47;3.50;;;;;;;-145.69;100.00;73665.50;5074628;28;20202;-79
2021/12/15 09:41:06;;;;;;;8.80;3.47;;;;;;;-145.69;100.00;73671.47;5074687;28;20294;-79
2021/12/15 09:43:34;;;;;;;7.37;3.17;;;;;;;-145.69;100.00;73671.47;5074674;28;20229;-79
2021/12/15 09:46:07;;;;;;;5.77;2.73;;;;;;;-145.69;100.00;73657.53;5074632;28;20241;-79
2021/12/15 09:57:14;;;;;;;5.87;2.37;;;;;;;-145.69;100.00;73623.69;5074192;28;20279;-78
2021/12/15 10:05:25;;;;;;;4.27;2.23;;;;;;;-145.69;100.00;73615.72;5073469;28;20202;-77
2021/12/15 10:19:28;;;;;;;2.83;2.00;;;;;;;-145.69;100.00;73546.06;5033013;28;20192;-78
2021/12/15 10:22:02;;;;;;;3.23;1.97;;;;;;;-145.69;100.00;73540.06;5031654;28;20197;-78
2021/12/15 10:24:31;;;;;;;3.30;1.80;;;;;;;-145.69;100.00;73500.25;5052877;28;20669;-78
2021/12/15 10:26:59;;;;;;;2.87;2.03;;;;;;;-145.69;100.00;73506.22;5073798;28;20557;-79
2021/12/15 10:30:07;;;;;;;5.93;2.37;;;;;;;-145.69;100.00;73520.16;5076531;28;20226;-78
2021/12/15 10:32:38;;;;;;;3.60;1.90;;;;;;;-145.69;100.00;73506.22;5073906;28;20202;-78
2021/12/15 10:35:09;;;;;;;4.13;2.20;;;;;;;-145.69;100.00;73500.25;5073221;28;20260;-79
2021/12/15 10:37:37;;;;;;;4.30;2.30;;;;;;;-145.69;100.00;73506.22;5072650;28;20802;-79
2021/12/15 10:40:15;;;;;;;7.23;1.90;;;;;;;-145.69;100.00;73502.25;5073449;28;20658;-79
2021/12/15 10:42:41;;;;;;;4.83;2.70;;;;;;;-145.69;100.00;73538.09;5073592;28;20198;-78
2021/12/15 10:45:13;;;;;;;5.23;2.70;;;;;;;-145.69;100.00;73500.25;5073519;28;20198;-79
2021/12/15 10:47:53;;;;;;;5.50;2.50;;;;;;;-145.69;100.00;73482.34;5073366;28;20207;-78
2021/12/15 10:50:23;;;;;;;5.40;2.57;;;;;;;-145.69;100.00;73476.38;5073217;28;20277;-78
2021/12/15 10:52:56;;;;;;;3.83;2.40;;;;;;;-145.69;100.00;73440.53;5073315;28;20600;-78
2021/12/15 10:55:31;;;;;;;5.13;2.50;;;;;;;-145.69;100.00;73444.50;5073130;28;20230;-78
2021/12/15 10:57:58;;;;;;;3.97;2.10;;;;;;;-145.69;100.00;73408.69;5073012;28;20203;-78
2021/12/15 11:00:25;;;;;;;4.63;2.60;;;;;;;-145.69;100.00;73414.66;5072840;28;20187;-78
2021/12/15 11:03:02;;;;;;;4.30;2.33;;;;;;;-145.69;100.00;73380.81;5073308;28;20195;-78
2021/12/15 11:05:29;;;;;;;4.23;2.27;;;;;;;-145.69;100.00;73356.91;5073438;28;20209;-78
2021/12/15 11:07:58;;;;;;;4.13;2.13;;;;;;;-145.69;100.00;73356.91;5073032;28;20661;-78
2021/12/15 11:10:28;;;;;;;3.00;2.10;;;;;;;-145.69;100.00;73382.81;5072389;28;20554;-78
2021/12/15 11:12:57;;;;;;;3.37;2.13;;;;;;;-145.69;100.00;73416.66;5073360;28;20198;-79
2021/12/15 11:15:27;;;;;;;2.90;2.03;;;;;;;-145.69;100.00;73456.47;5072934;28;20289;-78
2021/12/15 11:17:57;;;;;;;3.63;2.23;;;;;;;-145.69;100.00;73446.50;5073260;28;20290;-78
2021/12/15 11:20:26;;;;;;;3.83;2.17;;;;;;;-145.69;100.00;73460.44;5058334;28;20200;-78
2021/12/15 11:22:59;;;;;;;2.90;1.77;;;;;;;-145.69;100.00;73426.59;5053236;28;20603;-78
2021/12/15 11:25:31;;;;;;;4.03;2.47;;;;;;;-145.69;100.00;73442.53;5052744;28;20550;-78
2021/12/15 11:28:03;;;;;;;4.40;2.53;;;;;;;-145.69;100.00;73440.53;5052970;28;20199;-79
2021/12/15 11:30:34;;;;;;;4.60;2.67;;;;;;;-145.69;100.00;73448.50;5067940;28;20699;-79
2021/12/15 11:33:05;;;;;;;7.03;3.57;;;;;;;-145.69;100.00;73446.50;5077294;28;20203;-80
2021/12/15 11:35:35;;;;;;;5.53;2.60;;;;;;;-145.69;100.00;73432.56;5076600;28;20296;-80
2021/12/15 11:38:06;;;;;;;5.53;2.87;;;;;;;-145.69;100.00;73438.53;5077193;28;20590;-79
2021/12/15 11:40:40;;;;;;;4.50;2.00;;;;;;;-145.69;100.00;73480.34;5076834;28;20201;-80
2021/12/15 11:43:08;;;;;;;5.60;2.30;;;;;;;-145.69;100.00;73478.34;5076754;28;20672;-80
2021/12/15 11:45:39;;;;;;;4.43;2.37;;;;;;;-145.69;100.00;73440.53;5076611;28;20202;-77
2021/12/15 11:48:20;;;;;;;6.37;2.93;;;;;;;-145.69;100.00;73436.56;5076587;28;20202;-77
2021/12/15 11:50:50;;;;;;;5.30;2.90;;;;;;;-145.69;100.00;73422.63;5076580;28;20202;-77
2021/12/15 11:53:39;;;;;;;3.87;2.37;;;;;;;-145.69;100.00;73394.75;5076566;28;20199;-81
2021/12/15 11:56:28;;;;;;;4.43;2.37;;;;;;;-145.69;100.00;73368.88;5073116;28;20685;-80
2021/12/15 11:59:00;;;;;;;3.43;2.00;;;;;;;-145.69;100.00;73390.75;5076497;28;20608;-81
2021/12/15 12:01:46;;;;;;;2.70;1.80;;;;;;;-145.69;100.00;73396.72;5076393;28;20202;-81
2021/12/15 12:04:36;;;;;;;3.60;1.93;;;;;;;-145.69;100.00;73414.66;5076131;28;20195;-81
2021/12/15 12:07:27;;;;;;;2.93;1.80;;;;;;;-145.69;100.00;73400.72;5076039;28;20608;-80
2021/12/15 12:09:58;;;;;;;3.23;2.37;;;;;;;-145.69;100.00;73418.63;5065820;28;20207;-81
2021/12/15 12:12:30;;;;;;;3.23;1.93;;;;;;;-145.69;100.00;73410.66;5075902;28;20190;-81